• Join FlightAware (Why Join?)
  • Login
  • US Flag 
08:45AM EDT


 

Airport Tracker/Info


-or-


 

Live Flight TrackerFlight Track Log ✈ N5EC ✈ 30-Apr-2012 ✈ KVJI - KPTK

Flight Track Log - Related Links

Times and Time Zones

All times are in EDT time to prevent confusion due to time zone crossing. See the N5EC flight status page for this flight to view local times or setup timezone preferences in your user account.

Time Position Orientation Groundspeed Altitude Reporting Facility
EDT Latitude Longitude Course Direction KTS MPH feet Rate Location/Type
04:17PM 36.6972 -82.0376 333° Northwest  Level FlightAware Approximate
04:18PM 36.7383 -82.0550 332° Northwest  Level FlightAware Approximate
04:24PM 36.9986 -82.2308 332° Northwest 167 192 7,900  Level Indianapolis Center
04:25PM 37.0364 -82.2561 333° Northwest 157 181 7,900  Level Indianapolis Center
04:26PM 37.0722 -82.2789 338° Northwest 157 181 7,900  Level Indianapolis Center
04:27PM 37.1122 -82.2992 334° Northwest 152 175 7,900  Level Indianapolis Center
04:28PM 37.1500 -82.3219 338° Northwest 152 175 7,900  Level Indianapolis Center
04:29PM 37.1897 -82.3422 334° Northwest 152 175 7,900  Level Indianapolis Center
04:30PM 37.2275 -82.3650 336° Northwest 152 175 7,900  Level Indianapolis Center
04:31PM 37.2675 -82.3878 334° Northwest 152 175 7,900  Level Indianapolis Center
04:32PM 37.3053 -82.4108 335° Northwest 152 175 7,900  Level Indianapolis Center
04:33PM 37.3450 -82.4336 335° Northwest 152 175 7,900  Level Indianapolis Center
04:34PM 37.3847 -82.4567 334° Northwest 152 175 7,900  Level Indianapolis Center
04:35PM 37.4225 -82.4794 335° Northwest 152 175 7,900  Level Indianapolis Center
04:36PM 37.4625 -82.5025 332° Northwest 152 175 7,900  Level Indianapolis Center
04:37PM 37.5003 -82.5283 338° Northwest 152 175 7,900  Level Indianapolis Center
04:38PM 37.5400 -82.5486 335° Northwest 152 175 7,900  Level Indianapolis Center
04:39PM 37.5800 -82.5717 334° Northwest 152 175 7,900  Level Indianapolis Center
04:40PM 37.6175 -82.5947 334° Northwest 152 175 7,900  Level Indianapolis Center
04:41PM 37.6553 -82.6178 338° Northwest 152 175 7,900  Level Indianapolis Center
04:42PM 37.6953 -82.6383 334° Northwest 152 175 7,900  Level Indianapolis Center
04:43PM 37.7369 -82.6642 339° North 152 175 7,900  Level Indianapolis Center
04:44PM 37.7728 -82.6819 333° Northwest 152 175 7,900  Level Indianapolis Center
04:45PM 37.8083 -82.7053 333° Northwest 152 175 7,900  Level Indianapolis Center
04:46PM 37.8481 -82.7311 336° Northwest 152 175 8,000  Climbing Indianapolis Center
04:47PM 37.8900 -82.7544 335° Northwest 152 175 8,000 -60 Level Indianapolis Center
04:48PM 37.9297 -82.7775 342° North 152 175 7,900 -60 Descending Indianapolis Center
05:03PM 38.5611 -83.0364 350° North 173 199 7,900  Level Indianapolis Center
05:04PM 38.6050 -83.0467 344° North 172 198 7,900  Level Indianapolis Center
05:05PM 38.6489 -83.0625 350° North 166 191 7,900  Level Indianapolis Center
05:06PM 38.6925 -83.0728 344° North 166 191 7,900  Level Indianapolis Center
05:07PM 38.7344 -83.0886 347° North 174 200 7,900  Level Indianapolis Center
05:08PM 38.7761 -83.1014 350° North 180 207 8,000  Climbing Indianapolis Center
05:09PM 38.8222 -83.1119 355° North 174 200 8,000  Level Indianapolis Center
05:10PM 38.8700 -83.1169 350° North 169 194 8,000  Level Indianapolis Center
05:11PM 38.9161 -83.1272 341° North 163 188 8,000  Level Indianapolis Center
05:12PM 38.9578 -83.1458 347° North 163 188 8,000  Level Indianapolis Center
05:13PM 39.0017 -83.1589 346° North 163 188 8,000  Level Indianapolis Center
05:14PM 39.0517 -83.1747 344° North 164 189 8,000  Level Indianapolis Center
05:15PM 39.0956 -83.1906 347° North 164 189 8,000  Level Indianapolis Center
05:16PM 39.1394 -83.2036 350° North 164 189 8,000 -60 Level Indianapolis Center
05:17PM 39.1853 -83.2142 355° North 169 194 7,900 -60 Descending Indianapolis Center
05:18PM 39.2311 -83.2192 343° North 161 185 7,900  Level Indianapolis Center
05:19PM 39.2708 -83.2353 353° North 163 188 7,900  Level Indianapolis Center
05:20PM 39.3167 -83.2431 338° Northwest 165 190 7,900  Level Indianapolis Center
05:21PM 39.3583 -83.2644 348° North 161 185 7,900  Level Indianapolis Center
05:22PM 39.4044 -83.2775 352° North 164 189 7,900  Level Indianapolis Center
05:23PM 39.4461 -83.2856 344° North 161 185 7,900  Level Indianapolis Center
05:24PM 39.4900 -83.3014 342° North 166 191 7,900  Level Indianapolis Center
05:25PM 39.5400 -83.3228 352° North 163 188 7,900  Level Indianapolis Center
05:26PM 39.5817 -83.3308 344° North 166 191 7,900  Level Indianapolis Center
05:27PM 39.6256 -83.3467 346° North 161 185 7,900  Level Indianapolis Center
05:28PM 39.6672 -83.3600 338° Northwest 161 185 7,900  Level Indianapolis Center
05:29PM 39.7089 -83.3817 347° North 158 182 7,900  Level Indianapolis Center
05:30PM 39.7547 -83.3950 344° North 162 186 7,900  Level Indianapolis Center
05:31PM 39.7986 -83.4111 350° North 161 185 7,900  Level Indianapolis Center
05:32PM 39.8425 -83.4217 347° North 159 183 7,900  Level Indianapolis Center
05:33PM 39.8861 -83.4353 348° North 160 184 7,900  Level Indianapolis Center
05:34PM 39.9322 -83.4486 343° North 164 189 7,900  Level Indianapolis Center
05:35PM 39.9800 -83.4675 343° North 163 188 7,900  Level Indianapolis Center
05:36PM 40.0217 -83.4839 347° North 164 189 7,900  Level Indianapolis Center
05:37PM 40.0656 -83.4972 347° North 163 188 7,900  Level Indianapolis Center
05:38PM 40.1114 -83.5108 348° North 164 189 7,900  Level Indianapolis Center
05:39PM 40.1406 -83.5189 344° North 162 186 7,900  Level Indianapolis Center
05:40PM 40.1844 -83.5353 349° North 162 186 7,900  Level Indianapolis Center
05:41PM 40.2281 -83.5461 346° North 168 193 7,900  Level Indianapolis Center
05:42PM 40.2697 -83.5597 345° North 179 206 7,900  Level Indianapolis Center
05:43PM 40.3156 -83.5761 347° North 179 206 7,900  Level Indianapolis Center
05:44PM 40.3594 -83.5897 344° North 173 199 7,900  Level Indianapolis Center
05:45PM 40.4033 -83.6061 347° North 162 186 7,900  Level Indianapolis Center
05:46PM 40.4469 -83.6197 345° North 162 186 7,900  Level Indianapolis Center
05:47PM 40.4950 -83.6361 345° North 169 194 7,900  Level Indianapolis Center
05:48PM 40.5408 -83.6525 344° North 164 189 7,900  Level Indianapolis Center
05:49PM 40.5844 -83.6692 349° North 164 189 7,900  Level Indianapolis Center
05:50PM 40.6283 -83.6800 342° North 164 189 7,900  Level Indianapolis Center
05:51PM 40.6739 -83.6994 345° North 164 189 7,900  Level Indianapolis Center
05:59PM 41.0093 -83.8155 10° North  Level FlightAware Approximate
06:00PM 41.0539 -83.8053 10° North  Level FlightAware Approximate
06:01PM 41.0985 -83.7950 10° North  Level FlightAware Approximate
06:02PM 41.1430 -83.7848 10° North  Level FlightAware Approximate
06:03PM 41.1876 -83.7745 10° North  Level FlightAware Approximate
06:04PM 41.2322 -83.7642 10° North  Level FlightAware Approximate
06:05PM 41.2767 -83.7539 10° North  Level FlightAware Approximate
06:06PM 41.3213 -83.7436 10° North  Level FlightAware Approximate
06:07PM 41.3658 -83.7333 10° North  Level FlightAware Approximate
06:08PM 41.4104 -83.7229 10° North  Level FlightAware Approximate
06:09PM 41.4549 -83.7126 10° North  Level FlightAware Approximate
06:10PM 41.4995 -83.7022 10° North  Level FlightAware Approximate
06:11PM 41.5441 -83.6918 10° North  Level FlightAware Approximate
06:12PM 41.5886 -83.6814 10° North  Level FlightAware Approximate
06:13PM 41.6332 -83.6710 10° North  Level FlightAware Approximate
06:14PM 41.6777 -83.6606 10° North  Level FlightAware Approximate
06:15PM 41.7223 -83.6501 10° North  Level FlightAware Approximate
06:16PM 41.7668 -83.6397 10° North  Level FlightAware Approximate
06:17PM 41.8114 -83.6292 10° North  Level FlightAware Approximate
06:18PM 41.8559 -83.6187 10° North  Level FlightAware Approximate
06:19PM 41.9005 -83.6082 10° North  Level FlightAware Approximate
06:20PM 41.9450 -83.5977 10° North  Level FlightAware Approximate
06:21PM 41.9896 -83.5872 10° North  Level FlightAware Approximate
06:22PM 42.0341 -83.5767 10° North  Level FlightAware Approximate
06:23PM 42.0786 -83.5661 10° North  Level FlightAware Approximate
06:24PM 42.1232 -83.5555 10° North  Level FlightAware Approximate
06:25PM 42.1677 -83.5449 10° North  Level FlightAware Approximate
06:26PM 42.2123 -83.5343 10° North  Level FlightAware Approximate
06:27PM 42.2568 -83.5237 10° North  Level FlightAware Approximate
06:28PM 42.3013 -83.5131 10° North  Level FlightAware Approximate
06:29PM 42.3459 -83.5024 10° North  Level FlightAware Approximate
06:30PM 42.3904 -83.4918 10° North  Level FlightAware Approximate
06:31PM 42.4350 -83.4811 10° North  Level FlightAware Approximate
06:32PM 42.4795 -83.4704 10° North  Level FlightAware Approximate
06:33PM 42.5240 -83.4597 10° North  Level FlightAware Approximate
06:34PM 42.5686 -83.4490 10° North  Level FlightAware Approximate
06:35PM 42.6131 -83.4382 23° Northeast  Level FlightAware Approximate
06:36PM 42.6500 -83.4167 350° North  Level FlightAware Approximate
06:37PM 42.6945 -83.4276 170° South  Level Estimated
06:38PM 42.6500 -83.4167 350° North  Level Estimated
06:39PM 42.6945 -83.4276 170° South  Level Estimated
06:40PM 42.6500 -83.4167 350° North  Level FlightAware Approximate
06:41PM 42.6945 -83.4276 170° South  Level Estimated
06:42PM 42.6500 -83.4167 350° North  Level FlightAware Approximate
06:43PM 42.6945 -83.4276 170° South  Level Estimated
06:44PM 42.6500 -83.4167 350° North  Level FlightAware Approximate
06:45PM 42.6945 -83.4276 170° South  Level Estimated
06:46PM 42.6500 -83.4167 350° North  Level FlightAware Approximate
06:47PM 42.6945 -83.4276 170° South  Level Estimated
06:48PM 42.6500 -83.4167 350° North  Level FlightAware Approximate
06:49PM 42.6945 -83.4276 170° South  Level Estimated
06:50PM 42.6500 -83.4167 350° North  Level FlightAware Approximate
06:51PM 42.6945 -83.4276 170° South  Level Estimated
06:52PM 42.6500 -83.4167 350° North  Level FlightAware Approximate
06:53PM 42.6945 -83.4276 170° South  Level Estimated
06:54PM 42.6500 -83.4167 350° North  Level FlightAware Approximate
06:55PM 42.6945 -83.4276 170° South  Level Estimated
06:56PM 42.6500 -83.4167 170° South  Level FlightAware Approximate